createdAt,value
2017-12-08T00:00:10.975Z,99848.94
2017-12-08T00:02:39.287Z,99855.48
2017-12-08T00:05:07.600Z,99860.47
2017-12-08T00:07:35.889Z,99857.28
2017-12-08T00:10:04.388Z,99855.27
2017-12-08T00:12:32.707Z,99856.25
2017-12-08T00:15:00.964Z,99852.12
2017-12-08T00:17:29.927Z,99849.58
2017-12-08T00:19:58.514Z,99850.61
2017-12-08T00:22:26.964Z,99850.65
2017-12-08T00:24:55.339Z,99849.41
2017-12-08T00:27:23.758Z,99844.02
2017-12-08T00:29:52.179Z,99835.27
2017-12-08T00:32:20.455Z,99832.63
2017-12-08T00:34:48.808Z,99822.09
2017-12-08T00:37:17.148Z,99819.52
2017-12-08T00:39:45.426Z,99824.28
2017-12-08T00:42:13.876Z,99818.20
2017-12-08T00:44:42.161Z,99815.47
2017-12-08T00:47:10.555Z,99816.86
2017-12-08T00:49:38.938Z,99817.22
2017-12-08T00:52:07.316Z,99816.23
2017-12-08T00:54:35.603Z,99814.84
2017-12-08T00:57:04.211Z,99810.23
2017-12-08T00:59:32.531Z,99801.48
2017-12-08T01:02:00.818Z,99803.64
2017-12-08T01:04:29.168Z,99799.20
2017-12-08T01:06:57.507Z,99801.80
2017-12-08T01:09:25.763Z,99814.09
2017-12-08T01:11:54.046Z,99809.13
2017-12-08T01:14:22.315Z,99805.35
2017-12-08T01:16:50.642Z,99817.23
2017-12-08T01:19:19.066Z,99809.26
2017-12-08T01:21:47.358Z,99813.39
2017-12-08T01:24:15.706Z,99818.76
2017-12-08T01:26:44.023Z,99821.33
2017-12-08T01:29:12.291Z,99812.58
2017-12-08T01:31:40.607Z,99812.76
2017-12-08T01:34:09.058Z,99810.52
2017-12-08T01:36:37.526Z,99808.14
2017-12-08T01:39:06.047Z,99800.78
2017-12-08T01:41:34.383Z,99794.97
2017-12-08T01:44:02.954Z,99800.70
2017-12-08T01:46:31.255Z,99799.89
2017-12-08T01:48:59.695Z,99800.30
2017-12-08T01:51:27.987Z,99806.67
2017-12-08T01:53:56.287Z,99804.28
2017-12-08T01:56:24.692Z,99796.71
2017-12-08T01:58:53.034Z,99788.78
2017-12-08T02:01:21.360Z,99785.38
2017-12-08T02:03:53.775Z,99800.66
2017-12-08T02:06:22.163Z,99806.98
2017-12-08T02:08:50.432Z,99798.86
2017-12-08T02:11:18.771Z,99808.55
2017-12-08T02:13:47.023Z,99796.41
2017-12-08T02:16:15.384Z,99805.14
2017-12-08T02:18:43.699Z,99809.50
2017-12-08T02:21:12.015Z,99803.35
2017-12-08T02:23:40.272Z,99803.34
2017-12-08T02:26:08.687Z,99799.55
2017-12-08T02:28:37.017Z,99798.56
2017-12-08T02:31:05.436Z,99804.07
2017-12-08T02:33:33.757Z,99804.91
2017-12-08T02:36:02.121Z,99805.91
2017-12-08T02:38:30.391Z,99803.94
2017-12-08T02:40:58.695Z,99799.54
2017-12-08T02:43:27.042Z,99796.76
2017-12-08T02:45:55.388Z,99801.29
2017-12-08T02:48:23.724Z,99790.36
2017-12-08T02:50:52.011Z,99781.80
2017-12-08T02:53:20.335Z,99780.23
2017-12-08T02:55:48.631Z,99782.02
2017-12-08T02:58:16.902Z,99776.64
2017-12-08T03:00:45.195Z,99774.45
2017-12-08T03:03:13.483Z,99772.06
2017-12-08T03:05:41.767Z,99772.25
2017-12-08T03:08:10.158Z,99768.70
2017-12-08T03:10:38.630Z,99773.59
2017-12-08T03:13:07.102Z,99772.97
2017-12-08T03:15:36.179Z,99776.78
2017-12-08T03:18:04.470Z,99771.80
2017-12-08T03:20:32.812Z,99772.83
2017-12-08T03:23:01.251Z,99783.49
2017-12-08T03:25:29.751Z,99779.92
2017-12-08T03:27:58.202Z,99790.44
2017-12-08T03:30:26.515Z,99777.53
2017-12-08T03:32:54.828Z,99779.28
2017-12-08T03:35:23.263Z,99767.14
2017-12-08T03:37:51.535Z,99768.12
2017-12-08T03:40:20.024Z,99772.11
2017-12-08T03:42:48.509Z,99758.00
2017-12-08T03:45:16.783Z,99760.78
2017-12-08T03:47:45.064Z,99771.49
2017-12-08T03:50:13.448Z,99767.53
2017-12-08T03:52:41.700Z,99774.04
2017-12-08T03:55:10.086Z,99780.77
2017-12-08T03:57:38.375Z,99778.61
2017-12-08T04:00:06.744Z,99776.02
2017-12-08T04:02:35.903Z,99773.81
2017-12-08T04:05:04.162Z,99783.94
2017-12-08T04:07:32.520Z,99782.69
2017-12-08T04:10:00.795Z,99788.10
2017-12-08T04:12:29.189Z,99789.27
2017-12-08T04:14:57.476Z,99779.33
2017-12-08T04:17:25.964Z,99786.86
2017-12-08T04:19:54.271Z,99785.24
2017-12-08T04:22:22.551Z,99795.19
2017-12-08T04:24:51.004Z,99800.92
2017-12-08T04:27:19.447Z,99794.56
2017-12-08T04:29:47.769Z,99788.38
2017-12-08T04:32:16.080Z,99795.50
2017-12-08T04:34:44.511Z,99796.53
2017-12-08T04:37:13.039Z,99798.31
2017-12-08T04:39:41.527Z,99797.47
2017-12-08T04:42:09.991Z,99797.43
2017-12-08T04:44:38.271Z,99802.04
2017-12-08T04:47:06.571Z,99802.98
2017-12-08T04:49:34.879Z,99806.16
2017-12-08T04:52:03.199Z,99806.16
2017-12-08T04:54:31.684Z,99808.34
2017-12-08T04:57:00.178Z,99812.75
2017-12-08T04:59:28.663Z,99818.07
2017-12-08T05:01:56.980Z,99812.47
2017-12-08T05:04:25.283Z,99811.27
2017-12-08T05:06:53.572Z,99818.79
2017-12-08T05:09:22.031Z,99818.25
2017-12-08T05:11:50.347Z,99817.41
2017-12-08T05:14:18.609Z,99810.14
2017-12-08T05:16:46.916Z,99802.30
2017-12-08T05:19:15.231Z,99806.86
2017-12-08T05:21:43.566Z,99804.89
2017-12-08T05:24:12.236Z,99805.66
2017-12-08T05:26:40.591Z,99802.61
2017-12-08T05:29:09.114Z,99807.27
2017-12-08T05:31:37.563Z,99810.77
2017-12-08T05:34:05.871Z,99806.41
2017-12-08T05:36:34.151Z,99814.93
2017-12-08T05:39:02.452Z,99814.80
2017-12-08T05:41:30.867Z,99811.83
2017-12-08T05:43:59.167Z,99810.64
2017-12-08T05:46:27.528Z,99817.76
2017-12-08T05:48:56.707Z,99813.81
2017-12-08T05:51:25.070Z,99818.97
2017-12-08T05:53:53.360Z,99822.20
2017-12-08T05:56:21.688Z,99816.19
2017-12-08T05:58:49.955Z,99821.97
2017-12-08T06:01:18.286Z,99827.92
2017-12-08T06:03:46.579Z,99826.94
2017-12-08T06:06:15.071Z,99825.15
2017-12-08T06:08:43.516Z,99830.30
2017-12-08T06:11:11.838Z,99834.29
2017-12-08T06:13:40.489Z,99835.50
2017-12-08T06:16:08.782Z,99836.48
2017-12-08T06:18:37.250Z,99833.27
2017-12-08T06:21:05.744Z,99834.25
2017-12-08T06:23:34.068Z,99831.05
2017-12-08T06:26:02.516Z,99833.66
2017-12-08T06:28:30.951Z,99835.86
2017-12-08T06:30:59.871Z,99834.83
2017-12-08T06:33:28.386Z,99832.84
2017-12-08T06:35:56.851Z,99831.16
2017-12-08T06:38:25.123Z,99831.39
2017-12-08T06:40:53.447Z,99837.38
2017-12-08T06:43:21.788Z,99829.84
2017-12-08T06:45:50.080Z,99840.61
2017-12-08T06:48:18.334Z,99836.91
2017-12-08T06:50:46.603Z,99842.41
2017-12-08T06:53:14.874Z,99839.15
2017-12-08T06:55:43.180Z,99851.30
2017-12-08T06:58:11.627Z,99853.18
2017-12-08T07:00:40.083Z,99855.66
2017-12-08T07:03:08.363Z,99848.30
2017-12-08T07:05:36.861Z,99846.28
2017-12-08T07:08:05.208Z,99850.27
2017-12-08T07:10:33.502Z,99853.63
2017-12-08T07:13:01.914Z,99854.66
2017-12-08T07:15:30.215Z,99859.62
2017-12-08T07:17:58.511Z,99865.77
2017-12-08T07:20:26.805Z,99864.80
2017-12-08T07:22:55.156Z,99871.78
2017-12-08T07:25:23.466Z,99869.19
2017-12-08T07:27:51.834Z,99871.78
2017-12-08T07:30:20.167Z,99871.02
2017-12-08T07:32:48.428Z,99876.80
2017-12-08T07:35:16.799Z,99884.52
2017-12-08T07:37:45.071Z,99882.38
2017-12-08T07:40:13.359Z,99884.39
2017-12-08T07:42:41.711Z,99875.06
2017-12-08T07:45:10.015Z,99869.50
2017-12-08T07:47:38.355Z,99871.52
2017-12-08T07:50:06.676Z,99879.27
2017-12-08T07:52:35.035Z,99882.06
2017-12-08T07:55:03.328Z,99886.23
2017-12-08T07:57:31.676Z,99890.62
2017-12-08T07:59:59.906Z,99891.66
2017-12-08T08:02:28.366Z,99891.83
2017-12-08T08:04:56.794Z,99888.11
2017-12-08T08:07:25.164Z,99892.06
2017-12-08T08:09:53.455Z,99888.30
2017-12-08T08:12:21.839Z,99882.16
2017-12-08T08:14:50.167Z,99882.97
2017-12-08T08:17:18.544Z,99881.58
2017-12-08T08:19:46.880Z,99884.17
2017-12-08T08:22:15.238Z,99877.05
2017-12-08T08:24:43.528Z,99881.84
2017-12-08T08:27:12.060Z,99895.33
2017-12-08T08:29:40.343Z,99897.91
2017-12-08T08:32:08.706Z,99901.70
2017-12-08T08:34:37.586Z,99905.25
2017-12-08T08:37:06.162Z,99902.70
2017-12-08T08:39:34.443Z,99909.24
2017-12-08T08:42:02.835Z,99904.48
2017-12-08T08:44:31.339Z,99908.88
2017-12-08T08:46:59.723Z,99913.86
2017-12-08T08:49:28.072Z,99917.45
2017-12-08T08:51:56.571Z,99918.66
2017-12-08T08:54:24.851Z,99914.48
2017-12-08T08:56:53.181Z,99917.84
2017-12-08T08:59:21.451Z,99922.23
2017-12-08T09:01:49.927Z,99918.47
2017-12-08T09:04:18.224Z,99913.91
2017-12-08T09:06:46.515Z,99917.09
2017-12-08T09:09:14.960Z,99915.88
2017-12-08T09:11:43.268Z,99928.44
2017-12-08T09:14:11.596Z,99929.24
2017-12-08T09:16:39.904Z,99931.84
2017-12-08T09:19:08.248Z,99932.47
2017-12-08T09:21:36.691Z,99942.20
2017-12-08T09:24:05.147Z,99935.36
2017-12-08T09:26:33.428Z,99940.70
2017-12-08T09:29:01.779Z,99941.36
2017-12-08T09:31:30.072Z,99943.83
2017-12-08T09:33:58.380Z,99941.36
2017-12-08T09:36:26.694Z,99938.35
2017-12-08T09:38:55.036Z,99943.33
2017-12-08T09:41:23.405Z,99930.77
2017-12-08T09:43:51.943Z,99932.75
2017-12-08T09:46:20.271Z,99937.10
2017-12-08T09:48:48.550Z,99937.50
2017-12-08T09:51:16.956Z,99932.97
2017-12-08T09:53:45.319Z,99937.14
2017-12-08T09:56:13.644Z,99941.95
2017-12-08T09:58:41.934Z,99932.80
2017-12-08T10:01:10.325Z,99940.95
2017-12-08T10:03:38.607Z,99943.74
2017-12-08T10:06:06.952Z,99938.00
2017-12-08T10:08:35.419Z,99934.00
2017-12-08T10:11:03.705Z,99935.17
2017-12-08T10:13:31.995Z,99920.09
2017-12-08T10:16:00.332Z,99930.05
2017-12-08T10:18:28.662Z,99932.66
2017-12-08T10:20:57.087Z,99934.59
2017-12-08T10:23:25.387Z,99935.03
2017-12-08T10:25:53.675Z,99940.37
2017-12-08T10:28:21.940Z,99950.70
2017-12-08T10:30:50.244Z,99944.14
2017-12-08T10:33:18.556Z,99938.63
2017-12-08T10:35:46.939Z,99943.02
2017-12-08T10:38:15.328Z,99943.97
2017-12-08T10:40:43.639Z,99932.44
2017-12-08T10:43:12.089Z,99937.78
2017-12-08T10:45:40.670Z,99934.59
2017-12-08T10:48:08.972Z,99929.03
2017-12-08T10:50:37.361Z,99924.72
2017-12-08T10:53:05.627Z,99920.91
2017-12-08T10:55:34.149Z,99930.41
2017-12-08T10:58:02.446Z,99920.67
2017-12-08T11:00:35.014Z,99917.91
2017-12-08T11:03:03.451Z,99912.34
2017-12-08T11:05:31.935Z,99910.84
2017-12-08T11:08:00.289Z,99907.36
2017-12-08T11:10:28.571Z,99898.20
2017-12-08T11:12:56.854Z,99900.17
2017-12-08T11:15:25.482Z,99910.14
2017-12-08T11:17:53.755Z,99904.16
2017-12-08T11:20:22.031Z,99895.82
2017-12-08T11:22:50.500Z,99902.20
2017-12-08T11:25:18.820Z,99896.22
2017-12-08T11:27:47.156Z,99905.30
2017-12-08T11:30:15.637Z,99899.14
2017-12-08T11:32:43.987Z,99900.89
2017-12-08T11:35:12.315Z,99901.84
2017-12-08T11:37:40.954Z,99906.64
2017-12-08T11:40:09.328Z,99909.47
2017-12-08T11:42:37.908Z,99902.95
2017-12-08T11:45:06.220Z,99911.16
2017-12-08T11:47:34.612Z,99913.94
2017-12-08T11:50:03.074Z,99909.16
2017-12-08T11:52:31.669Z,99910.85
2017-12-08T11:54:59.956Z,99915.02
2017-12-08T11:57:28.394Z,99914.88
2017-12-08T11:59:56.863Z,99910.93
2017-12-08T12:02:25.342Z,99912.31
2017-12-08T12:04:53.804Z,99915.02
2017-12-08T12:07:22.135Z,99910.55
2017-12-08T12:09:50.530Z,99917.71
2017-12-08T12:12:19.010Z,99919.11
2017-12-08T12:14:47.364Z,99918.75
2017-12-08T12:17:15.806Z,99930.50
2017-12-08T12:19:44.171Z,99921.16
2017-12-08T12:22:12.472Z,99927.00
2017-12-08T12:24:40.783Z,99920.81
2017-12-08T12:27:09.116Z,99921.56
2017-12-08T12:29:37.575Z,99925.88
2017-12-08T12:32:05.890Z,99930.23
2017-12-08T12:34:34.195Z,99934.01
2017-12-08T12:37:02.536Z,99932.80
2017-12-08T12:39:30.824Z,99928.22
2017-12-08T12:41:59.143Z,99928.39
2017-12-08T12:44:27.459Z,99926.78
2017-12-08T12:46:55.779Z,99933.52
2017-12-08T12:49:24.247Z,99927.37
2017-12-08T12:51:52.536Z,99909.47
2017-12-08T12:54:20.891Z,99927.54
2017-12-08T12:56:49.207Z,99915.20
2017-12-08T12:59:17.496Z,99915.80
2017-12-08T13:01:45.799Z,99922.34
2017-12-08T13:04:14.252Z,99918.98
2017-12-08T13:06:42.563Z,99920.77
2017-12-08T13:09:10.838Z,99916.38
2017-12-08T13:11:39.257Z,99912.42
2017-12-08T13:14:07.668Z,99911.07
2017-12-08T13:16:35.999Z,99911.39
2017-12-08T13:19:04.323Z,99899.88
2017-12-08T13:21:32.649Z,99904.58
2017-12-08T13:24:01.007Z,99894.95
2017-12-08T13:26:29.395Z,99893.31
2017-12-08T13:28:57.722Z,99890.19
2017-12-08T13:31:26.282Z,99892.20
2017-12-08T13:33:54.567Z,99894.27
2017-12-08T13:36:22.843Z,99895.67
2017-12-08T13:38:51.135Z,99889.14
2017-12-08T13:41:19.908Z,99879.86
2017-12-08T13:43:48.332Z,99882.95
2017-12-08T13:46:16.633Z,99889.92
2017-12-08T13:48:44.911Z,99889.61
2017-12-08T13:51:13.182Z,99893.09
2017-12-08T13:55:51.575Z,99889.27
2017-12-08T13:58:19.836Z,99885.73
2017-12-08T14:00:48.455Z,99887.49
2017-12-08T14:03:16.943Z,99887.81
2017-12-08T14:05:45.255Z,99894.63
2017-12-08T14:08:13.548Z,99891.38
2017-12-08T14:10:41.971Z,99901.11
2017-12-08T14:13:10.327Z,99896.34
2017-12-08T14:15:38.731Z,99902.39
2017-12-08T14:18:07.043Z,99892.62
2017-12-08T14:20:35.483Z,99888.25
2017-12-08T14:23:03.807Z,99892.20
2017-12-08T14:25:32.116Z,99896.75
2017-12-08T14:28:00.484Z,99901.91
2017-12-08T14:30:28.904Z,99908.06
2017-12-08T14:32:57.362Z,99915.39
2017-12-08T14:35:25.993Z,99913.95
2017-12-08T14:37:54.271Z,99915.93
2017-12-08T14:40:22.760Z,99907.11
2017-12-08T14:42:51.071Z,99905.71
2017-12-08T14:45:19.476Z,99900.14
2017-12-08T14:47:47.936Z,99896.38
2017-12-08T14:50:16.231Z,99894.80
2017-12-08T14:52:44.629Z,99886.67
2017-12-08T14:55:12.891Z,99894.54
2017-12-08T14:57:41.175Z,99895.57
2017-12-08T15:00:09.506Z,99898.56
2017-12-08T15:02:37.791Z,99897.28
2017-12-08T15:05:06.151Z,99904.56
2017-12-08T15:07:34.436Z,99905.81
2017-12-08T15:10:02.723Z,99906.61
2017-12-08T15:12:31.059Z,99900.39
2017-12-08T15:14:59.366Z,99910.52
2017-12-08T15:17:28.458Z,99916.27
2017-12-08T15:19:57.528Z,99918.24
2017-12-08T15:22:26.347Z,99921.39
2017-12-08T15:24:55.324Z,99923.00
2017-12-08T15:27:24.675Z,99923.19
2017-12-08T15:29:53.358Z,99923.00
2017-12-08T15:32:21.795Z,99926.38
2017-12-08T15:34:51.171Z,99934.72
2017-12-08T15:37:19.534Z,99931.94
2017-12-08T15:39:47.811Z,99940.69
2017-12-08T15:42:16.276Z,99962.17
2017-12-08T15:44:44.714Z,99970.70
2017-12-08T15:47:13.057Z,99985.02
2017-12-08T15:49:41.408Z,99996.73
2017-12-08T15:52:09.791Z,100005.66
2017-12-08T15:54:38.303Z,99994.35
2017-12-08T15:57:06.595Z,99990.77
2017-12-08T15:59:34.882Z,99987.22
2017-12-08T16:02:03.328Z,99978.24
2017-12-08T16:04:31.631Z,99969.09
2017-12-08T16:06:59.952Z,99976.05
2017-12-08T16:09:28.408Z,99973.48
2017-12-08T16:11:56.870Z,99974.70
2017-12-08T16:14:25.180Z,99970.13
2017-12-08T16:16:53.471Z,99965.18
2017-12-08T16:19:21.804Z,99965.55
2017-12-08T16:21:50.101Z,99968.73
2017-12-08T16:24:18.378Z,99975.91
2017-12-08T16:26:46.670Z,99967.16
2017-12-08T16:29:14.947Z,99964.56
2017-12-08T16:31:43.346Z,99968.55
2017-12-08T16:34:11.643Z,99964.16
2017-12-08T16:36:40.083Z,99964.56
2017-12-08T16:39:08.397Z,99959.58
2017-12-08T16:41:36.739Z,99963.38
2017-12-08T16:44:05.635Z,99968.33
2017-12-08T16:46:34.011Z,99968.55
2017-12-08T16:49:02.274Z,99969.95
2017-12-08T16:51:30.574Z,99964.20
2017-12-08T16:53:58.823Z,99963.21
2017-12-08T16:56:27.212Z,99957.87
2017-12-08T16:58:55.482Z,99960.29
2017-12-08T17:01:23.799Z,99961.47
2017-12-08T17:03:52.116Z,99970.22
2017-12-08T17:06:20.415Z,99962.67
2017-12-08T17:08:48.735Z,99965.67
2017-12-08T17:11:17.085Z,99970.66
2017-12-08T17:13:45.549Z,99972.45
2017-12-08T17:16:13.872Z,99965.31
2017-12-08T17:18:42.237Z,99964.73
2017-12-08T17:21:10.596Z,99966.12
2017-12-08T17:23:39.055Z,99976.67
2017-12-08T17:26:07.368Z,99982.83
2017-12-08T17:28:35.811Z,99984.03
2017-12-08T17:31:04.120Z,99983.27
2017-12-08T17:33:32.462Z,99973.53
2017-12-08T17:36:00.955Z,99980.34
2017-12-08T17:38:29.243Z,99978.73
2017-12-08T17:40:57.563Z,99977.16
2017-12-08T17:43:25.923Z,99972.80
2017-12-08T17:45:54.384Z,99975.81
2017-12-08T17:48:22.687Z,99972.44
2017-12-08T17:50:51.141Z,99980.20
2017-12-08T17:53:19.490Z,99974.23
2017-12-08T17:55:47.776Z,99970.29
2017-12-08T17:58:16.079Z,99980.61
2017-12-08T18:00:44.377Z,99978.23
2017-12-08T18:03:12.680Z,99978.23
2017-12-08T18:05:41.059Z,99979.63
2017-12-08T18:08:09.438Z,99978.45
2017-12-08T18:10:37.780Z,99989.81
2017-12-08T18:13:06.214Z,99988.42
2017-12-08T18:15:34.544Z,99990.22
2017-12-08T18:18:03.003Z,99986.63
2017-12-08T18:20:31.338Z,99986.66
2017-12-08T18:22:59.755Z,99987.06
2017-12-08T18:25:28.115Z,99985.86
2017-12-08T18:27:56.391Z,99984.28
2017-12-08T18:30:24.679Z,99994.80
2017-12-08T18:32:52.963Z,99990.25
2017-12-08T18:35:21.315Z,99990.04
2017-12-08T18:37:49.643Z,100000.98
2017-12-08T18:40:18.083Z,99997.44
2017-12-08T18:42:46.354Z,100002.83
2017-12-08T18:45:16.899Z,100007.98
2017-12-08T18:47:45.704Z,100008.98
2017-12-08T18:50:16.261Z,100009.38
2017-12-08T18:52:49.199Z,100007.59
2017-12-08T18:55:25.071Z,100007.00
2017-12-08T18:57:53.849Z,100002.46
2017-12-08T19:00:22.423Z,99997.66
2017-12-08T19:02:52.956Z,100011.99
2017-12-08T19:05:21.774Z,100010.59
2017-12-08T19:07:50.083Z,100019.35
2017-12-08T19:10:18.767Z,100019.58
2017-12-08T19:12:47.047Z,100019.98
2017-12-08T19:15:15.358Z,100018.36
2017-12-08T19:17:43.658Z,100023.34
2017-12-08T19:20:12.787Z,100019.58
2017-12-08T19:22:43.144Z,100027.16
2017-12-08T19:25:12.464Z,100026.58
2017-12-08T19:27:40.716Z,100038.70
2017-12-08T19:30:09.215Z,100037.30
2017-12-08T19:32:37.490Z,100042.51
2017-12-08T19:35:05.871Z,100048.08
2017-12-08T19:37:34.595Z,100046.47
2017-12-08T19:40:03.003Z,100045.12
2017-12-08T19:42:31.332Z,100045.30
2017-12-08T19:44:59.824Z,100049.07
2017-12-08T19:47:28.166Z,100054.23
2017-12-08T19:49:56.464Z,100061.60
2017-12-08T19:52:24.781Z,100068.16
2017-12-08T19:54:53.175Z,100075.70
2017-12-08T19:57:21.455Z,100077.72
2017-12-08T19:59:49.736Z,100081.31
2017-12-08T20:02:18.084Z,100081.89
2017-12-08T20:04:46.671Z,100080.10
2017-12-08T20:07:14.971Z,100085.89
2017-12-08T20:09:43.239Z,100085.67
2017-12-08T20:12:11.535Z,100096.80
2017-12-08T20:14:40.020Z,100091.64
2017-12-08T20:17:08.463Z,100099.23
2017-12-08T20:19:36.946Z,100098.83
2017-12-08T20:22:06.311Z,100104.98
2017-12-08T20:24:34.914Z,100107.77
2017-12-08T20:27:03.214Z,100101.38
2017-12-08T20:29:31.519Z,100110.32
2017-12-08T20:31:59.804Z,100116.30
2017-12-08T20:34:28.078Z,100115.08
2017-12-08T20:36:56.493Z,100118.86
2017-12-08T20:39:24.847Z,100112.52
2017-12-08T20:41:53.351Z,100116.87
2017-12-08T20:44:21.707Z,100125.81
2017-12-08T20:46:50.076Z,100117.05
2017-12-08T20:49:18.464Z,100118.86
2017-12-08T20:51:46.758Z,100125.81
2017-12-08T20:54:15.073Z,100126.22
2017-12-08T20:56:44.240Z,100124.64
2017-12-08T20:59:12.575Z,100127.02
2017-12-08T21:01:40.975Z,100126.80
2017-12-08T21:04:09.235Z,100128.20
2017-12-08T21:06:37.515Z,100129.22
2017-12-08T21:09:05.764Z,100135.37
2017-12-08T21:11:34.109Z,100135.16
2017-12-08T21:14:02.387Z,100134.56
2017-12-08T21:16:30.715Z,100145.31
2017-12-08T21:18:58.988Z,100139.59
2017-12-08T21:21:27.308Z,100142.56
2017-12-08T21:23:55.591Z,100144.54
2017-12-08T21:26:24.151Z,100140.36
2017-12-08T21:28:52.938Z,100147.55
2017-12-08T21:31:21.223Z,100148.13
2017-12-08T21:33:49.559Z,100145.16
2017-12-08T21:36:17.846Z,100143.41
2017-12-08T21:38:46.315Z,100144.63
2017-12-08T21:41:14.891Z,100153.39
2017-12-08T21:43:43.383Z,100149.80
2017-12-08T21:46:11.850Z,100148.63
2017-12-08T21:48:40.205Z,100148.45
2017-12-08T21:51:08.623Z,100145.66
2017-12-08T21:53:37.090Z,100151.67
2017-12-08T21:56:05.524Z,100152.05
2017-12-08T21:58:34.004Z,100145.09
2017-12-08T22:01:02.312Z,100146.11
2017-12-08T22:03:30.995Z,100149.48
2017-12-08T22:05:59.416Z,100156.67
2017-12-08T22:08:27.757Z,100153.27
2017-12-08T22:10:56.044Z,100152.50
2017-12-08T22:13:24.360Z,100158.47
2017-12-08T22:15:52.684Z,100152.31
2017-12-08T22:18:20.983Z,100152.90
2017-12-08T22:20:49.332Z,100148.32
2017-12-08T22:23:17.728Z,100146.56
2017-12-08T22:25:46.011Z,100150.34
2017-12-08T22:28:14.275Z,100146.75
2017-12-08T22:30:42.723Z,100149.94
2017-12-08T22:33:11.059Z,100154.11
2017-12-08T22:35:39.414Z,100152.13
2017-12-08T22:38:08.108Z,100159.86
2017-12-08T22:40:39.145Z,100161.84
2017-12-08T22:43:08.049Z,100162.06
2017-12-08T22:45:36.326Z,100161.08
2017-12-08T22:48:04.605Z,100159.68
2017-12-08T22:50:33.120Z,100158.06
2017-12-08T22:53:01.487Z,100161.08
2017-12-08T22:55:29.783Z,100159.68
2017-12-08T22:57:58.103Z,100152.90
2017-12-08T23:00:28.794Z,100163.05
2017-12-08T23:02:57.127Z,100159.68
2017-12-08T23:05:25.408Z,100158.11
2017-12-08T23:07:53.876Z,100162.06
2017-12-08T23:10:22.367Z,100157.48
2017-12-08T23:12:50.680Z,100157.30
2017-12-08T23:15:25.034Z,100160.48
2017-12-08T23:17:54.544Z,100158.29
2017-12-08T23:20:22.924Z,100158.69
2017-12-08T23:22:51.295Z,100159.68
2017-12-08T23:25:19.663Z,100151.11
2017-12-08T23:27:47.947Z,100153.44
2017-12-08T23:30:16.407Z,100157.03
2017-12-08T23:32:46.575Z,100146.47
2017-12-08T23:35:14.980Z,100153.20
2017-12-08T23:37:43.399Z,100158.38
2017-12-08T23:40:11.683Z,100160.94
2017-12-08T23:42:39.987Z,100165.50
2017-12-08T23:45:08.272Z,100162.37
2017-12-08T23:47:36.618Z,100162.59
2017-12-08T23:50:04.971Z,100165.11
2017-12-08T23:52:33.806Z,100160.31
2017-12-08T23:55:03.248Z,100158.06
2017-12-08T23:57:31.588Z,100158.75
2017-12-08T23:59:59.851Z,100139.81
